createdAt,value
2022-09-28T00:02:12.444Z,4.13
2022-09-28T00:04:39.870Z,4.03
2022-09-28T00:07:08.259Z,4.07
2022-09-28T00:09:35.696Z,5.60
2022-09-28T00:12:03.120Z,5.20
2022-09-28T00:14:32.231Z,6.18
2022-09-28T00:16:59.625Z,3.65
2022-09-28T00:19:28.348Z,3.90
2022-09-28T00:21:55.720Z,5.45
2022-09-28T00:24:27.296Z,5.22
2022-09-28T00:26:55.790Z,5.38
2022-09-28T00:29:24.036Z,4.15
2022-09-28T00:31:53.210Z,4.63
2022-09-28T00:34:20.709Z,5.30
2022-09-28T00:36:49.683Z,4.85
2022-09-28T00:39:17.795Z,4.50
2022-09-28T00:41:45.636Z,5.25
2022-09-28T00:44:31.806Z,6.30
2022-09-28T00:47:01.962Z,4.60
2022-09-28T00:49:33.163Z,4.90
2022-09-28T00:52:02.622Z,4.85
2022-09-28T00:54:30.088Z,5.10
2022-09-28T00:56:58.138Z,4.77
2022-09-28T00:59:25.683Z,5.15
2022-09-28T01:01:53.098Z,3.03
2022-09-28T01:04:20.504Z,3.45
2022-09-28T01:06:48.187Z,5.75
2022-09-28T01:09:17.428Z,5.73
2022-09-28T01:11:45.042Z,3.80
2022-09-28T01:14:13.871Z,4.22
2022-09-28T01:16:42.783Z,2.78
2022-09-28T01:19:18.832Z,4.50
2022-09-28T01:21:51.031Z,3.53
2022-09-28T01:24:32.679Z,4.38
2022-09-28T01:27:07.283Z,5.35
2022-09-28T01:29:53.390Z,4.45
2022-09-28T01:32:26.937Z,3.53
2022-09-28T01:34:57.341Z,3.77
2022-09-28T01:37:27.949Z,3.03
2022-09-28T01:39:56.841Z,2.20
2022-09-28T01:42:28.278Z,2.78
2022-09-28T01:44:57.759Z,2.72
2022-09-28T01:47:26.859Z,3.47
2022-09-28T01:49:57.454Z,2.00
2022-09-28T01:52:27.853Z,5.10
2022-09-28T01:54:58.795Z,2.70
2022-09-28T01:57:31.788Z,4.43
2022-09-28T02:00:01.542Z,2.20
2022-09-28T02:02:32.552Z,3.20
2022-09-28T02:05:03.041Z,4.13
2022-09-28T02:07:34.232Z,2.95
2022-09-28T02:10:02.208Z,3.60
2022-09-28T02:12:36.071Z,4.00
2022-09-28T02:15:07.707Z,4.38
2022-09-28T02:17:35.227Z,3.55
2022-09-28T02:20:02.755Z,2.40
2022-09-28T02:22:33.513Z,4.43
2022-09-28T02:25:05.203Z,2.33
2022-09-28T02:27:35.698Z,2.85
2022-09-28T02:30:03.465Z,3.72
2022-09-28T02:32:32.690Z,2.22
2022-09-28T02:35:00.256Z,2.60
2022-09-28T02:37:27.890Z,3.77
2022-09-28T02:39:55.362Z,4.75
2022-09-28T02:42:25.590Z,3.88
2022-09-28T02:45:05.952Z,2.60
2022-09-28T02:47:40.468Z,2.47
2022-09-28T02:50:12.947Z,2.37
2022-09-28T02:52:51.583Z,1.65
2022-09-28T02:55:27.787Z,3.28
2022-09-28T02:58:04.580Z,2.72
2022-09-28T03:00:34.695Z,2.85
2022-09-28T03:03:05.128Z,1.80
2022-09-28T03:05:35.247Z,3.05
2022-09-28T03:08:04.128Z,3.38
2022-09-28T03:10:34.990Z,2.88
2022-09-28T03:13:03.015Z,3.80
2022-09-28T03:15:31.401Z,2.80
2022-09-28T03:18:00.320Z,3.25
2022-09-28T03:20:28.678Z,2.65
2022-09-28T03:23:22.872Z,2.88
2022-09-28T03:25:43.955Z,2.63
2022-09-28T03:28:11.320Z,3.93
2022-09-28T03:30:39.345Z,2.28
2022-09-28T03:33:08.427Z,2.72
2022-09-28T03:35:35.789Z,2.45
2022-09-28T03:38:03.291Z,3.25
2022-09-28T03:40:30.701Z,3.90
2022-09-28T03:42:59.771Z,3.20
2022-09-28T03:45:27.193Z,3.65
2022-09-28T03:47:54.698Z,1.98
2022-09-28T03:50:23.436Z,3.75
2022-09-28T03:52:50.847Z,2.27
2022-09-28T03:55:18.247Z,3.13
2022-09-28T03:57:45.619Z,3.10
2022-09-28T04:00:14.231Z,2.22
2022-09-28T04:02:41.588Z,2.50
2022-09-28T04:05:09.294Z,2.60
2022-09-28T04:07:38.046Z,2.97
2022-09-28T04:10:05.719Z,3.80
2022-09-28T04:12:33.188Z,3.72
2022-09-28T04:15:00.598Z,2.30
2022-09-28T04:17:27.990Z,2.03
2022-09-28T04:19:55.353Z,2.35
2022-09-28T04:22:23.310Z,4.40
2022-09-28T04:24:52.036Z,1.95
2022-09-28T04:27:36.981Z,2.08
2022-09-28T04:30:05.022Z,3.30
2022-09-28T04:32:32.531Z,2.92
2022-09-28T04:35:00.237Z,2.17
2022-09-28T04:37:27.703Z,2.80
2022-09-28T04:39:56.463Z,2.10
2022-09-28T04:42:23.825Z,4.03
2022-09-28T04:44:51.247Z,2.70
2022-09-28T04:47:18.697Z,3.92
2022-09-28T04:49:46.205Z,2.22
2022-09-28T04:52:18.100Z,2.03
2022-09-28T04:54:45.973Z,3.87
2022-09-28T04:57:14.699Z,3.30
2022-09-28T04:59:42.060Z,2.60
2022-09-28T05:02:09.512Z,3.05
2022-09-28T05:04:37.280Z,2.97
2022-09-28T05:07:04.722Z,2.90
2022-09-28T05:09:34.985Z,2.78
2022-09-28T05:12:05.111Z,3.10
2022-09-28T05:14:34.279Z,2.70
2022-09-28T05:17:02.471Z,2.67
2022-09-28T05:19:30.186Z,3.20
2022-09-28T05:21:58.078Z,2.67
2022-09-28T05:24:25.489Z,5.00
2022-09-28T05:26:52.855Z,2.83
2022-09-28T05:29:20.285Z,2.58
2022-09-28T05:31:49.047Z,2.63
2022-09-28T05:34:16.495Z,2.85
2022-09-28T05:36:45.636Z,2.63
2022-09-28T05:39:13.216Z,3.13
2022-09-28T05:41:40.639Z,2.90
2022-09-28T05:44:07.993Z,3.43
2022-09-28T05:46:35.411Z,2.20
2022-09-28T05:49:04.185Z,3.42
2022-09-28T05:51:31.560Z,3.42
2022-09-28T05:54:04.687Z,4.63
2022-09-28T05:56:33.280Z,3.53
2022-09-28T05:59:01.632Z,4.75
2022-09-28T06:01:29.051Z,3.30
2022-09-28T06:03:56.514Z,3.33
2022-09-28T06:06:25.247Z,4.03
2022-09-28T06:08:52.655Z,3.50
2022-09-28T06:11:20.051Z,3.33
2022-09-28T06:13:48.536Z,3.63
2022-09-28T06:16:19.218Z,4.97
2022-09-28T06:18:46.649Z,3.15
2022-09-28T06:21:14.266Z,5.30
2022-09-28T06:23:48.177Z,3.17
2022-09-28T06:26:17.239Z,4.85
2022-09-28T06:28:44.642Z,3.63
2022-09-28T06:31:12.101Z,4.07
2022-09-28T06:33:41.999Z,3.47
2022-09-28T06:36:09.645Z,5.68
2022-09-28T06:38:37.073Z,4.72
2022-09-28T06:41:06.506Z,5.30
2022-09-28T06:43:34.982Z,6.30
2022-09-28T06:46:02.868Z,7.27
2022-09-28T06:48:32.414Z,5.13
2022-09-28T06:51:00.626Z,4.03
2022-09-28T06:53:28.523Z,3.95
2022-09-28T06:55:57.398Z,4.60
2022-09-28T06:58:28.091Z,4.07
2022-09-28T07:00:59.233Z,4.30
2022-09-28T07:03:27.035Z,4.60
2022-09-28T07:05:55.240Z,4.20
2022-09-28T07:08:24.258Z,4.80
2022-09-28T07:10:56.109Z,5.23
2022-09-28T07:13:48.009Z,4.22
2022-09-28T07:16:13.252Z,4.47
2022-09-28T07:18:42.109Z,5.78
2022-09-28T07:21:17.707Z,7.00
2022-09-28T07:23:53.710Z,7.03
2022-09-28T07:26:23.998Z,6.15
2022-09-28T07:28:51.875Z,5.70
2022-09-28T07:31:20.677Z,6.65
2022-09-28T07:33:51.124Z,5.03
2022-09-28T07:36:20.866Z,5.90
2022-09-28T07:38:48.807Z,5.05
2022-09-28T07:41:17.986Z,5.25
2022-09-28T07:43:45.326Z,7.47
2022-09-28T07:46:13.126Z,4.47
2022-09-28T07:48:43.330Z,6.43
2022-09-28T07:51:11.016Z,4.85
2022-09-28T07:53:39.043Z,5.72
2022-09-28T07:56:08.588Z,5.85
2022-09-28T07:58:36.602Z,7.22
2022-09-28T08:01:06.411Z,5.53
2022-09-28T08:03:34.116Z,6.63
2022-09-28T08:06:03.644Z,4.95
2022-09-28T08:08:31.594Z,6.07
2022-09-28T08:10:58.997Z,6.75
2022-09-28T08:13:27.262Z,7.87
2022-09-28T08:15:55.189Z,5.97
2022-09-28T08:18:23.387Z,8.85
2022-09-28T08:21:10.595Z,6.88
2022-09-28T08:23:39.366Z,5.47
2022-09-28T08:26:06.986Z,6.30
2022-09-28T08:28:35.324Z,7.07
2022-09-28T08:31:02.783Z,5.85
2022-09-28T08:33:30.216Z,5.40
2022-09-28T08:35:58.479Z,3.92
2022-09-28T08:38:26.642Z,4.40
2022-09-28T08:41:00.662Z,3.78
2022-09-28T08:43:39.476Z,4.22
2022-09-28T08:46:07.648Z,4.13
2022-09-28T08:48:56.253Z,3.33
2022-09-28T08:51:36.211Z,4.43
2022-09-28T08:54:08.153Z,4.22
2022-09-28T08:56:40.850Z,3.78
2022-09-28T08:59:11.877Z,2.72
2022-09-28T09:01:41.628Z,3.03
2022-09-28T09:04:09.160Z,2.87
2022-09-28T09:06:46.233Z,2.25
2022-09-28T09:09:18.756Z,3.90
2022-09-28T09:11:54.858Z,4.05
2022-09-28T09:14:31.100Z,3.55
2022-09-28T09:17:03.570Z,4.20
2022-09-28T09:19:36.186Z,5.00
2022-09-28T09:22:10.031Z,2.88
2022-09-28T09:24:42.067Z,2.47
2022-09-28T09:27:15.319Z,2.97
2022-09-28T09:29:50.152Z,1.93
2022-09-28T09:32:27.797Z,2.30
2022-09-28T09:35:52.544Z,2.35
2022-09-28T09:38:19.101Z,2.03
2022-09-28T09:40:55.761Z,1.73
2022-09-28T09:43:40.056Z,3.40
2022-09-28T09:46:12.528Z,2.97
2022-09-28T09:48:42.420Z,1.80
2022-09-28T09:51:17.654Z,2.67
2022-09-28T09:53:46.945Z,2.28
2022-09-28T09:56:16.936Z,4.30
2022-09-28T09:58:48.703Z,2.25
2022-09-28T10:01:18.318Z,2.42
2022-09-28T10:03:48.095Z,1.67
2022-09-28T10:06:17.871Z,1.50
2022-09-28T10:08:46.872Z,2.33
2022-09-28T10:11:16.359Z,2.88
2022-09-28T10:13:44.600Z,1.40
2022-09-28T10:16:13.389Z,2.22
2022-09-28T10:18:40.878Z,1.83
2022-09-28T10:21:12.482Z,2.70
2022-09-28T10:23:40.722Z,2.08
2022-09-28T10:26:10.755Z,1.52
2022-09-28T10:28:41.084Z,2.25
2022-09-28T10:31:23.358Z,1.77
2022-09-28T10:33:54.067Z,2.50
2022-09-28T10:36:21.448Z,3.78
2022-09-28T10:38:49.947Z,3.78
2022-09-28T10:41:17.386Z,2.72
2022-09-28T10:44:05.877Z,2.22
2022-09-28T10:46:33.523Z,3.40
2022-09-28T10:49:03.699Z,3.03
2022-09-28T10:51:43.736Z,2.13
2022-09-28T10:54:15.591Z,1.90
2022-09-28T10:56:43.083Z,2.22
2022-09-28T10:59:24.264Z,2.63
2022-09-28T11:01:54.745Z,2.53
2022-09-28T11:04:25.232Z,2.42
2022-09-28T11:06:52.820Z,2.72
2022-09-28T11:09:29.755Z,2.90
2022-09-28T11:11:58.623Z,2.80
2022-09-28T11:14:27.340Z,2.00
2022-09-28T11:17:09.632Z,1.73
2022-09-28T11:19:38.386Z,1.60
2022-09-28T11:22:20.798Z,3.75
2022-09-28T11:24:48.888Z,1.33
2022-09-28T11:27:23.563Z,2.63
2022-09-28T11:29:56.565Z,1.40
2022-09-28T11:32:24.893Z,1.40
2022-09-28T11:34:59.519Z,2.58
2022-09-28T11:37:35.503Z,2.77
2022-09-28T11:40:09.720Z,1.83
2022-09-28T11:42:43.997Z,1.55
2022-09-28T11:45:21.417Z,1.92
2022-09-28T11:47:52.301Z,2.30
2022-09-28T11:50:24.580Z,1.97
2022-09-28T11:52:56.380Z,2.20
2022-09-28T11:55:27.813Z,3.03
2022-09-28T11:57:57.973Z,1.67
2022-09-28T12:00:25.750Z,3.47
2022-09-28T12:02:56.941Z,4.03
2022-09-28T12:05:27.827Z,1.85
2022-09-28T12:07:56.755Z,2.67
2022-09-28T12:10:30.538Z,2.08
2022-09-28T12:13:01.769Z,3.78
2022-09-28T12:16:11.546Z,2.60
2022-09-28T12:18:35.059Z,3.47
2022-09-28T12:21:09.751Z,3.42
2022-09-28T12:23:39.275Z,3.45
2022-09-28T12:26:12.717Z,3.90
2022-09-28T12:28:42.842Z,2.10
2022-09-28T12:31:14.003Z,3.00
2022-09-28T12:33:42.400Z,1.98
2022-09-28T12:36:18.824Z,2.47
2022-09-28T12:39:14.847Z,2.17
2022-09-28T12:41:49.649Z,2.97
2022-09-28T12:44:28.383Z,3.35
2022-09-28T12:47:05.484Z,5.22
2022-09-28T12:50:36.586Z,2.40
2022-09-28T12:52:34.069Z,2.17
2022-09-28T12:57:48.044Z,9.18
2022-09-28T13:00:17.161Z,3.25
2022-09-28T13:03:07.778Z,2.47
2022-09-28T13:06:04.335Z,2.22
2022-09-28T13:08:37.184Z,3.50
2022-09-28T13:11:08.128Z,8.35
2022-09-28T13:13:40.950Z,1.58
2022-09-28T13:16:12.793Z,5.28
2022-09-28T13:18:43.295Z,2.63
2022-09-28T13:21:16.239Z,10.23
2022-09-28T13:23:46.277Z,2.85
2022-09-28T13:26:16.206Z,5.75
2022-09-28T13:28:45.258Z,3.42
2022-09-28T13:31:13.937Z,3.22
2022-09-28T13:33:42.062Z,4.20
2022-09-28T13:36:24.711Z,2.80
2022-09-28T13:38:53.851Z,4.30
2022-09-28T13:41:24.695Z,8.52
2022-09-28T13:43:59.775Z,6.60
2022-09-28T13:46:31.950Z,4.37
2022-09-28T13:49:06.319Z,17.15
2022-09-28T13:51:41.931Z,10.50
2022-09-28T13:54:17.555Z,10.18
2022-09-28T13:56:50.471Z,5.35
2022-09-28T13:59:21.179Z,2.43
2022-09-28T14:01:55.757Z,6.95
2022-09-28T14:04:23.888Z,3.85
2022-09-28T14:06:55.470Z,4.18
2022-09-28T14:09:39.757Z,4.60
2022-09-28T14:12:22.052Z,2.23
2022-09-28T14:14:50.707Z,3.03
2022-09-28T14:17:45.165Z,2.10
2022-09-28T14:20:15.150Z,2.60
2022-09-28T14:22:49.563Z,2.72
2022-09-28T14:25:21.961Z,2.10
2022-09-28T14:28:00.175Z,4.13
2022-09-28T14:30:28.589Z,2.88
2022-09-28T14:32:57.574Z,3.40
2022-09-28T14:35:28.094Z,5.05
2022-09-28T14:38:16.215Z,2.93
2022-09-28T14:41:12.620Z,3.15
2022-09-28T14:43:59.917Z,3.03
2022-09-28T14:46:29.281Z,2.38
2022-09-28T14:48:57.526Z,2.67
2022-09-28T14:51:43.547Z,2.90
2022-09-28T14:54:17.080Z,2.33
2022-09-28T14:56:46.888Z,2.58
2022-09-28T14:59:18.227Z,2.53
2022-09-28T15:01:47.953Z,2.42
2022-09-28T15:04:15.793Z,3.67
2022-09-28T15:06:47.340Z,4.00
2022-09-28T15:09:27.637Z,3.08
2022-09-28T15:12:01.126Z,3.17
2022-09-28T15:14:31.649Z,2.80
2022-09-28T15:17:00.604Z,3.23
2022-09-28T15:19:33.111Z,4.63
2022-09-28T15:22:00.934Z,4.18
2022-09-28T15:24:31.407Z,3.95
2022-09-28T15:26:59.057Z,5.00
2022-09-28T15:29:31.384Z,3.23
2022-09-28T15:31:59.268Z,3.85
2022-09-28T15:34:47.971Z,4.10
2022-09-28T15:37:16.357Z,3.85
2022-09-28T15:39:46.118Z,2.72
2022-09-28T15:42:13.503Z,5.70
2022-09-28T15:44:45.601Z,10.98
2022-09-28T15:47:14.779Z,6.05
2022-09-28T15:49:44.632Z,8.80
2022-09-28T15:52:23.358Z,4.18
2022-09-28T15:54:50.882Z,8.13
2022-09-28T15:57:33.814Z,5.07
2022-09-28T16:00:02.734Z,6.10
2022-09-28T16:02:30.552Z,5.43
2022-09-28T16:05:00.483Z,4.88
2022-09-28T16:07:29.884Z,5.67
2022-09-28T16:09:58.625Z,5.13
2022-09-28T16:12:31.738Z,4.47
2022-09-28T16:15:00.803Z,3.05
2022-09-28T16:17:32.292Z,3.42
2022-09-28T16:20:00.994Z,3.73
2022-09-28T16:22:28.976Z,4.50
2022-09-28T16:24:57.516Z,5.05
2022-09-28T16:27:27.206Z,3.35
2022-09-28T16:30:13.663Z,2.42
2022-09-28T16:32:49.545Z,3.83
2022-09-28T16:35:19.075Z,4.38
2022-09-28T16:37:48.720Z,4.40
2022-09-28T16:40:16.172Z,5.53
2022-09-28T16:42:49.024Z,4.78
2022-09-28T16:45:19.717Z,6.07
2022-09-28T16:47:52.707Z,6.38
2022-09-28T16:50:20.612Z,4.60
2022-09-28T16:53:05.815Z,5.22
2022-09-28T16:55:40.730Z,5.13
2022-09-28T16:58:08.852Z,6.07
2022-09-28T17:00:36.351Z,5.68
2022-09-28T17:03:11.507Z,4.55
2022-09-28T17:05:40.113Z,5.75
2022-09-28T17:08:07.672Z,5.72
2022-09-28T17:10:50.090Z,5.83
2022-09-28T17:13:26.906Z,5.38
2022-09-28T17:15:54.325Z,5.07
2022-09-28T17:18:23.582Z,4.80
2022-09-28T17:20:51.823Z,5.65
2022-09-28T17:25:48.167Z,8.23
2022-09-28T17:28:18.808Z,6.15
2022-09-28T17:30:46.273Z,6.40
2022-09-28T17:33:14.076Z,5.75
2022-09-28T17:35:43.639Z,11.63
2022-09-28T17:38:12.003Z,11.93
2022-09-28T17:40:39.501Z,11.85
2022-09-28T17:43:06.996Z,8.75
2022-09-28T17:45:35.822Z,9.02
2022-09-28T17:48:03.204Z,9.13
2022-09-28T17:50:32.343Z,7.63
2022-09-28T17:53:05.795Z,6.88
2022-09-28T17:55:34.088Z,5.75
2022-09-28T17:58:02.037Z,5.85
2022-09-28T18:00:29.641Z,5.27
2022-09-28T18:02:58.073Z,5.78
2022-09-28T18:05:30.282Z,6.68
2022-09-28T18:07:58.734Z,5.75
2022-09-28T18:10:27.562Z,7.97
2022-09-28T18:12:54.981Z,6.63
2022-09-28T18:15:22.437Z,5.07
2022-09-28T18:17:49.846Z,6.05
2022-09-28T18:20:17.218Z,6.13
2022-09-28T18:22:44.621Z,5.65
2022-09-28T18:25:12.059Z,6.13
2022-09-28T18:27:40.849Z,7.10
2022-09-28T18:30:08.638Z,7.97
2022-09-28T18:32:37.318Z,7.18
2022-09-28T18:35:04.988Z,6.53
2022-09-28T18:37:36.000Z,7.07
2022-09-28T18:40:03.476Z,9.05
2022-09-28T18:42:31.562Z,8.43
2022-09-28T18:45:00.311Z,9.60
2022-09-28T18:47:28.025Z,10.38
2022-09-28T18:49:58.475Z,7.43
2022-09-28T18:52:25.900Z,8.18
2022-09-28T18:54:55.195Z,5.93
2022-09-28T18:57:22.788Z,5.90
2022-09-28T18:59:50.202Z,6.80
2022-09-28T19:02:19.159Z,7.27
2022-09-28T19:04:46.680Z,6.63
2022-09-28T19:07:14.274Z,9.13
2022-09-28T19:09:43.942Z,9.10
2022-09-28T19:12:11.503Z,11.75
2022-09-28T19:14:38.970Z,11.23
2022-09-28T19:17:24.033Z,8.80
2022-09-28T19:19:52.786Z,14.13
2022-09-28T19:22:20.191Z,11.00
2022-09-28T19:24:47.571Z,11.48
2022-09-28T19:27:14.981Z,11.37
2022-09-28T19:29:42.368Z,10.50
2022-09-28T19:32:12.108Z,9.23
2022-09-28T19:34:39.623Z,9.57
2022-09-28T19:37:08.406Z,9.30
2022-09-28T19:39:35.779Z,13.07
2022-09-28T19:42:03.190Z,14.88
2022-09-28T19:44:32.254Z,16.75
2022-09-28T19:47:00.631Z,16.95
2022-09-28T19:49:32.951Z,17.13
2022-09-28T19:52:16.487Z,19.17
2022-09-28T19:54:55.648Z,16.40
2022-09-28T19:57:24.609Z,16.80
2022-09-28T19:59:53.742Z,15.30
2022-09-28T20:02:22.814Z,12.20
2022-09-28T20:04:50.303Z,11.33
2022-09-28T20:07:17.763Z,8.93
2022-09-28T20:09:46.507Z,8.45
2022-09-28T20:12:13.912Z,9.05
2022-09-28T20:14:41.296Z,9.52
2022-09-28T20:17:08.957Z,7.87
2022-09-28T20:19:36.399Z,8.60
2022-09-28T20:22:03.803Z,9.23
2022-09-28T20:24:31.452Z,11.25
2022-09-28T20:27:01.133Z,9.55
2022-09-28T20:29:28.708Z,8.10
2022-09-28T20:31:56.658Z,9.30
2022-09-28T20:34:24.209Z,10.80
2022-09-28T20:36:51.582Z,11.57
2022-09-28T20:39:19.119Z,12.07
2022-09-28T20:41:47.168Z,9.90
2022-09-28T20:44:16.090Z,9.98
2022-09-28T20:46:44.285Z,12.10
2022-09-28T20:49:11.860Z,11.88
2022-09-28T20:51:39.245Z,8.98
2022-09-28T20:54:06.691Z,8.93
2022-09-28T20:56:37.721Z,8.60
2022-09-28T20:59:05.687Z,8.00
2022-09-28T21:01:34.462Z,9.00
2022-09-28T21:04:02.842Z,10.95
2022-09-28T21:06:31.132Z,11.13
2022-09-28T21:08:58.945Z,10.02
2022-09-28T21:11:27.838Z,11.75
2022-09-28T21:13:55.773Z,11.38
2022-09-28T21:16:23.154Z,11.75
2022-09-28T21:18:51.892Z,10.83
2022-09-28T21:21:20.672Z,10.60
2022-09-28T21:23:48.300Z,10.32
2022-09-28T21:26:24.282Z,10.32
2022-09-28T21:28:52.724Z,8.98
2022-09-28T21:31:22.721Z,8.73
2022-09-28T21:33:54.917Z,8.95
2022-09-28T21:36:22.299Z,10.68
2022-09-28T21:38:49.787Z,9.30
2022-09-28T21:41:17.278Z,9.40
2022-09-28T21:43:44.708Z,10.07
2022-09-28T21:46:12.131Z,9.85
2022-09-28T21:48:39.612Z,10.52
2022-09-28T21:51:09.082Z,9.73
2022-09-28T21:53:37.113Z,10.45
2022-09-28T21:56:05.851Z,9.93
2022-09-28T21:58:34.129Z,12.13
2022-09-28T22:01:02.488Z,8.38
2022-09-28T22:03:30.632Z,9.23
2022-09-28T22:05:58.049Z,9.60
2022-09-28T22:08:27.333Z,8.40
2022-09-28T22:11:00.808Z,10.88
2022-09-28T22:13:28.584Z,8.75
2022-09-28T22:15:57.662Z,9.63
2022-09-28T22:18:25.441Z,9.30
2022-09-28T22:20:58.807Z,9.43
2022-09-28T22:23:27.588Z,10.45
2022-09-28T22:25:58.984Z,12.30
2022-09-28T22:28:26.607Z,11.18
2022-09-28T22:30:54.065Z,9.77
2022-09-28T22:33:21.574Z,9.43
2022-09-28T22:35:50.954Z,8.85
2022-09-28T22:38:18.387Z,9.77
2022-09-28T22:40:49.840Z,9.75
2022-09-28T22:43:17.424Z,10.15
2022-09-28T22:45:44.820Z,10.23
2022-09-28T22:48:12.758Z,10.20
2022-09-28T22:50:40.160Z,8.98
2022-09-28T22:53:07.972Z,10.00
2022-09-28T22:55:35.354Z,9.25
2022-09-28T22:58:04.151Z,8.57
2022-09-28T23:00:31.565Z,10.30
2022-09-28T23:02:59.039Z,8.98
2022-09-28T23:05:26.471Z,9.38
2022-09-28T23:07:53.831Z,9.77
2022-09-28T23:10:21.223Z,10.13
2022-09-28T23:12:48.657Z,9.38
2022-09-28T23:15:17.529Z,9.88
2022-09-28T23:17:44.910Z,9.82
2022-09-28T23:20:12.263Z,9.20
2022-09-28T23:22:39.659Z,11.33
2022-09-28T23:25:07.599Z,10.35
2022-09-28T23:27:34.998Z,9.65
2022-09-28T23:30:02.429Z,10.77
2022-09-28T23:32:32.100Z,10.02
2022-09-28T23:34:59.680Z,10.20
2022-09-28T23:37:27.030Z,10.15
2022-09-28T23:39:54.429Z,9.75
2022-09-28T23:42:21.792Z,9.95
2022-09-28T23:44:49.558Z,9.70
2022-09-28T23:47:16.926Z,8.77
2022-09-28T23:49:45.661Z,9.27
2022-09-28T23:52:13.083Z,9.35
2022-09-28T23:54:40.813Z,9.60
2022-09-28T23:57:08.208Z,10.40
2022-09-28T23:59:35.582Z,10.93
